Time;durP1;ratioP1;P1;durP2;ratioP2;P2;SDS_P1;SDS_P2;PMS_P1;PMS_P2;Temp;Humidity;BMP_temperature;BMP_pressure;BME280_temperature;BME280_humidity;BME280_pressure;Samples;Min_cycle;Max_cycle;Signal;HPM_P1;HPM_P2
2022/08/23 00:00:28;;;;;;;12.80;1.85;;;;;;;;;;1023946;29;20122;-73
2022/08/23 00:00:59;;;;;;;5.65;1.75;;;;;;;;;;1019743;29;20465;-73
2022/08/23 00:01:31;;;;;;;18.73;2.17;;;;;;;;;;1020033;29;20429;-73
2022/08/23 00:02:04;;;;;;;7.30;2.28;;;;;;;;;;1023777;28;20023;-73
2022/08/23 00:02:34;;;;;;;15.32;1.52;;;;;;;;;;1023898;29;20028;-73
2022/08/23 00:03:05;;;;;;;21.85;2.55;;;;;;;;;;1023739;29;20118;-73
2022/08/23 00:03:35;;;;;;;14.02;1.90;;;;;;;;;;1023954;29;20095;-73
2022/08/23 00:04:07;;;;;;;6.10;1.90;;;;;;;;;;1023807;29;20050;-73
2022/08/23 00:04:40;;;;;;;7.78;2.20;;;;;;;;;;1023942;29;20066;-73
2022/08/23 00:05:10;;;;;;;14.95;2.30;;;;;;;;;;1027708;28;20434;-73
2022/08/23 00:05:41;;;;;;;7.70;1.85;;;;;;;;;;1027774;28;20113;-73
2022/08/23 00:06:12;;;;;;;9.88;2.55;;;;;;;;;;1027829;28;20554;-73
2022/08/23 00:06:44;;;;;;;11.52;3.00;;;;;;;;;;1027941;28;20022;-73
2022/08/23 00:07:15;;;;;;;13.23;3.28;;;;;;;;;;1027768;28;20030;-73
2022/08/23 00:07:45;;;;;;;6.78;1.92;;;;;;;;;;1028193;28;20030;-73
2022/08/23 00:08:16;;;;;;;5.35;2.35;;;;;;;;;;1028045;28;20030;-73
2022/08/23 00:08:47;;;;;;;8.50;2.25;;;;;;;;;;1028259;28;20034;-73
2022/08/23 00:09:19;;;;;;;5.60;2.05;;;;;;;;;;1028043;28;20035;-73
2022/08/23 00:09:50;;;;;;;27.25;2.28;;;;;;;;;;1028265;28;20364;-73
2022/08/23 00:10:21;;;;;;;8.60;1.80;;;;;;;;;;1028067;28;20023;-73
2022/08/23 00:10:52;;;;;;;9.48;1.40;;;;;;;;;;1028168;28;20122;-73
2022/08/23 00:11:34;;;;;;;11.15;1.90;;;;;;;;;;1028010;28;20030;-73
2022/08/23 00:12:04;;;;;;;7.10;2.05;;;;;;;;;;1028034;28;20034;-73
2022/08/23 00:12:35;;;;;;;7.75;1.70;;;;;;;;;;1028194;28;20030;-73
2022/08/23 00:13:05;;;;;;;5.68;1.88;;;;;;;;;;1027702;28;20026;-74
2022/08/23 00:13:36;;;;;;;7.70;2.58;;;;;;;;;;1027898;28;20360;-74
2022/08/23 00:14:11;;;;;;;8.82;3.50;;;;;;;;;;1027604;28;20031;-73
2022/08/23 00:14:44;;;;;;;10.98;2.38;;;;;;;;;;1027959;28;20035;-73
2022/08/23 00:15:16;;;;;;;3.70;1.30;;;;;;;;;;1028025;28;20019;-73
2022/08/23 00:15:47;;;;;;;4.88;1.10;;;;;;;;;;1028181;28;20092;-73
2022/08/23 00:16:18;;;;;;;11.15;1.88;;;;;;;;;;1028000;28;20097;-73
2022/08/23 00:16:49;;;;;;;6.57;2.08;;;;;;;;;;1028156;28;20027;-73
2022/08/23 00:17:20;;;;;;;8.07;2.22;;;;;;;;;;1027969;28;20062;-73
2022/08/23 00:17:50;;;;;;;8.80;1.60;;;;;;;;;;1028220;28;20030;-73
2022/08/23 00:18:23;;;;;;;7.80;2.10;;;;;;;;;;1027996;28;20034;-73
2022/08/23 00:18:53;;;;;;;9.70;2.17;;;;;;;;;;1027802;28;20494;-73
2022/08/23 00:19:25;;;;;;;6.32;2.53;;;;;;;;;;1027694;28;20019;-73
2022/08/23 00:19:56;;;;;;;8.35;2.30;;;;;;;;;;1027843;28;20018;-73
2022/08/23 00:20:26;;;;;;;8.27;2.20;;;;;;;;;;1027802;28;20515;-73
2022/08/23 00:20:57;;;;;;;8.48;2.30;;;;;;;;;;1028082;28;20109;-73
2022/08/23 00:21:28;;;;;;;13.77;1.92;;;;;;;;;;1028089;28;20518;-73
2022/08/23 00:21:58;;;;;;;8.20;1.95;;;;;;;;;;1028062;28;20023;-73
2022/08/23 00:22:29;;;;;;;9.43;1.73;;;;;;;;;;1028092;28;20058;-73
2022/08/23 00:22:59;;;;;;;7.18;2.00;;;;;;;;;;1027934;28;20034;-73
2022/08/23 00:23:30;;;;;;;14.57;2.22;;;;;;;;;;1028098;28;20031;-73
2022/08/23 00:24:01;;;;;;;11.10;1.60;;;;;;;;;;1028109;28;20438;-73
2022/08/23 00:24:31;;;;;;;9.38;1.63;;;;;;;;;;1027712;28;20068;-73
2022/08/23 00:25:03;;;;;;;13.07;2.97;;;;;;;;;;1027745;28;20048;-73
2022/08/23 00:25:34;;;;;;;7.65;2.05;;;;;;;;;;1027784;28;20045;-73
2022/08/23 00:26:04;;;;;;;7.72;1.90;;;;;;;;;;1027733;28;20023;-73
2022/08/23 00:26:53;;;;;;;6.63;1.85;;;;;;;;;;1028109;28;20053;-73
2022/08/23 00:27:25;;;;;;;19.05;3.30;;;;;;;;;;1028009;28;20027;-73
2022/08/23 00:27:56;;;;;;;10.25;2.08;;;;;;;;;;1028065;28;20034;-73
2022/08/23 00:28:27;;;;;;;19.17;2.42;;;;;;;;;;1027724;28;20372;-73
2022/08/23 00:28:57;;;;;;;12.90;2.35;;;;;;;;;;1027730;28;20088;-73
2022/08/23 00:29:30;;;;;;;18.63;2.47;;;;;;;;;;1027801;28;20561;-73
2022/08/23 00:30:01;;;;;;;8.52;3.22;;;;;;;;;;1027730;28;20135;-73
2022/08/23 00:30:32;;;;;;;22.98;3.67;;;;;;;;;;1028112;28;20030;-73
2022/08/23 00:31:03;;;;;;;18.92;2.60;;;;;;;;;;1028074;28;20506;-73
2022/08/23 00:31:33;;;;;;;20.80;3.30;;;;;;;;;;1028111;28;20125;-73
2022/08/23 00:32:06;;;;;;;9.07;2.10;;;;;;;;;;1027978;28;20037;-73
2022/08/23 00:32:37;;;;;;;6.47;2.20;;;;;;;;;;1028140;28;20061;-73
2022/08/23 00:33:08;;;;;;;5.55;2.10;;;;;;;;;;1027622;28;20096;-73
2022/08/23 00:33:39;;;;;;;7.22;1.80;;;;;;;;;;1027807;28;20054;-74
2022/08/23 00:34:10;;;;;;;9.02;2.28;;;;;;;;;;1023632;29;20028;-73
2022/08/23 00:34:40;;;;;;;8.55;2.22;;;;;;;;;;1024116;28;20491;-73
2022/08/23 00:35:12;;;;;;;5.47;1.77;;;;;;;;;;1027693;28;20467;-73
2022/08/23 00:35:42;;;;;;;7.20;2.13;;;;;;;;;;1027818;28;20086;-73
2022/08/23 00:36:13;;;;;;;4.45;2.22;;;;;;;;;;1027590;28;20085;-73
2022/08/23 00:36:43;;;;;;;3.13;1.95;;;;;;;;;;1023701;29;20395;-73
2022/08/23 00:37:14;;;;;;;9.43;1.98;;;;;;;;;;1023692;29;20118;-73
2022/08/23 00:37:45;;;;;;;14.48;2.65;;;;;;;;;;1023980;28;20126;-73
2022/08/23 00:38:16;;;;;;;6.40;2.13;;;;;;;;;;1023756;28;20508;-73
2022/08/23 00:38:47;;;;;;;10.48;2.13;;;;;;;;;;1023771;29;20444;-73
2022/08/23 00:39:18;;;;;;;11.52;2.15;;;;;;;;;;1023510;29;20101;-73
2022/08/23 00:39:49;;;;;;;12.73;1.92;;;;;;;;;;1023868;29;20090;-73
2022/08/23 00:40:19;;;;;;;8.68;2.72;;;;;;;;;;1023773;28;20071;-73
2022/08/23 00:40:51;;;;;;;6.60;2.20;;;;;;;;;;1028047;28;20137;-73
2022/08/23 00:41:22;;;;;;;7.78;1.77;;;;;;;;;;1031663;28;20474;-73
2022/08/23 00:41:55;;;;;;;10.02;2.42;;;;;;;;;;1031504;28;20030;-73
2022/08/23 00:47:38;;;;;;;8.70;3.00;;;;;;;;;;1028068;28;20034;-73
2022/08/23 00:48:10;;;;;;;12.02;3.10;;;;;;;;;;1027982;28;20491;-73
2022/08/23 00:48:41;;;;;;;9.23;3.42;;;;;;;;;;1027949;28;20122;-73
2022/08/23 00:49:12;;;;;;;11.82;2.85;;;;;;;;;;1027972;28;20038;-73
2022/08/23 00:49:44;;;;;;;13.88;2.80;;;;;;;;;;1028071;28;20045;-73
2022/08/23 00:50:23;;;;;;;10.02;2.40;;;;;;;;;;1027830;28;20471;-73
2022/08/23 00:51:01;;;;;;;8.38;2.47;;;;;;;;;;1028091;28;20037;-73
2022/08/23 00:51:56;;;;;;;11.10;3.25;;;;;;;;;;1028052;28;20488;-73
2022/08/23 00:52:31;;;;;;;6.95;1.90;;;;;;;;;;1020507;28;20032;-73
2022/08/23 00:53:02;;;;;;;8.05;2.58;;;;;;;;;;1027952;28;20034;-73
2022/08/23 00:53:37;;;;;;;16.25;2.47;;;;;;;;;;1028065;28;20113;-74
2022/08/23 00:54:08;;;;;;;7.95;2.47;;;;;;;;;;1027926;28;20034;-73
2022/08/23 00:54:40;;;;;;;6.85;3.35;;;;;;;;;;1027787;28;20066;-73
2022/08/23 00:55:11;;;;;;;17.27;3.58;;;;;;;;;;1027649;28;20031;-73
2022/08/23 00:55:43;;;;;;;10.07;2.72;;;;;;;;;;1027791;28;20394;-73
2022/08/23 00:56:14;;;;;;;7.18;3.25;;;;;;;;;;1027654;28;20050;-73
2022/08/23 00:56:45;;;;;;;11.38;4.15;;;;;;;;;;1028032;28;20033;-73
2022/08/23 00:57:18;;;;;;;13.27;3.95;;;;;;;;;;1027372;28;20030;-74
2022/08/23 00:57:48;;;;;;;15.50;3.80;;;;;;;;;;1027426;28;20034;-73
2022/08/23 00:58:20;;;;;;;12.32;3.70;;;;;;;;;;1027335;28;20034;-73
2022/08/23 00:58:51;;;;;;;20.45;5.55;;;;;;;;;;1027763;28;20030;-73
2022/08/23 00:59:22;;;;;;;20.40;5.50;;;;;;;;;;1027401;28;20099;-73
2022/08/23 00:59:52;;;;;;;17.38;5.72;;;;;;;;;;1027990;28;20502;-73
2022/08/23 01:00:24;;;;;;;13.30;4.15;;;;;;;;;;1027887;28;20027;-73
2022/08/23 01:00:56;;;;;;;16.83;4.88;;;;;;;;;;1028108;28;20447;-73
2022/08/23 01:01:26;;;;;;;31.67;5.53;;;;;;;;;;1027955;28;20026;-73
2022/08/23 01:01:58;;;;;;;15.70;5.13;;;;;;;;;;1027886;28;20024;-73
2022/08/23 01:02:28;;;;;;;21.70;5.30;;;;;;;;;;1027891;28;20452;-73
2022/08/23 01:03:00;;;;;;;21.25;5.20;;;;;;;;;;1026774;28;20033;-74
2022/08/23 01:03:33;;;;;;;17.67;4.57;;;;;;;;;;1028021;28;20395;-74
2022/08/23 01:04:04;;;;;;;10.82;3.30;;;;;;;;;;1027775;28;20037;-74
2022/08/23 01:04:38;;;;;;;11.18;3.08;;;;;;;;;;1028026;28;20034;-74
2022/08/23 01:05:08;;;;;;;14.48;4.50;;;;;;;;;;1027830;28;20085;-74
2022/08/23 01:05:47;;;;;;;21.83;3.40;;;;;;;;;;1028055;28;20030;-74
2022/08/23 01:06:31;;;;;;;18.92;3.22;;;;;;;;;;1026142;28;20026;-74
2022/08/23 01:07:05;;;;;;;13.05;3.70;;;;;;;;;;1023945;28;20387;-74
2022/08/23 01:07:35;;;;;;;9.48;3.22;;;;;;;;;;1024186;28;20027;-74
2022/08/23 01:08:06;;;;;;;16.25;3.45;;;;;;;;;;1023694;29;20031;-74
2022/08/23 01:08:37;;;;;;;15.10;3.17;;;;;;;;;;1023689;29;20034;-74
2022/08/23 01:09:10;;;;;;;15.13;3.33;;;;;;;;;;1024629;28;20031;-74
2022/08/23 01:09:42;;;;;;;15.93;4.20;;;;;;;;;;1023980;28;20030;-74
2022/08/23 01:10:17;;;;;;;10.95;3.55;;;;;;;;;;1026974;28;20158;-74
2022/08/23 01:10:51;;;;;;;13.05;3.10;;;;;;;;;;1024075;28;20035;-74
2022/08/23 01:11:32;;;;;;;21.52;3.80;;;;;;;;;;1023387;29;20027;-74
2022/08/23 01:12:13;;;;;;;12.48;3.53;;;;;;;;;;1023479;28;20034;-74
2022/08/23 01:12:47;;;;;;;18.08;3.97;;;;;;;;;;1025581;28;20565;-74
2022/08/23 01:13:20;;;;;;;15.77;4.60;;;;;;;;;;1027388;28;20038;-74
2022/08/23 01:13:57;;;;;;;18.60;4.10;;;;;;;;;;1024020;28;20027;-74
2022/08/23 01:14:33;;;;;;;23.98;3.83;;;;;;;;;;1024508;28;20118;-74
2022/08/23 01:15:10;;;;;;;25.55;4.22;;;;;;;;;;1027695;28;20450;-73
2022/08/23 01:15:53;;;;;;;25.20;4.00;;;;;;;;;;1027035;28;20031;-74
2022/08/23 01:16:32;;;;;;;10.93;2.75;;;;;;;;;;1026752;28;20030;-74
2022/08/23 01:17:10;;;;;;;17.27;4.00;;;;;;;;;;1023951;28;20461;-74
2022/08/23 01:17:44;;;;;;;8.82;3.72;;;;;;;;;;1024018;28;20599;-74
2022/08/23 01:18:16;;;;;;;29.92;4.78;;;;;;;;;;1023882;28;20035;-74
2022/08/23 01:18:47;;;;;;;18.23;5.50;;;;;;;;;;1023964;28;20031;-74
2022/08/23 01:19:43;;;;;;;22.95;4.97;;;;;;;;;;1022871;28;20435;-74
2022/08/23 01:20:16;;;;;;;17.98;4.45;;;;;;;;;;1021639;29;20035;-74
2022/08/23 01:20:56;;;;;;;23.50;5.80;;;;;;;;;;1024230;28;20031;-74
2022/08/23 01:21:30;;;;;;;11.63;4.43;;;;;;;;;;1027727;28;20180;-74
2022/08/23 01:22:01;;;;;;;13.55;4.88;;;;;;;;;;1027894;28;20483;-74
2022/08/23 01:22:33;;;;;;;24.63;5.60;;;;;;;;;;1027026;28;20023;-74
2022/08/23 01:23:06;;;;;;;22.50;6.28;;;;;;;;;;1025507;28;20030;-74
2022/08/23 01:23:37;;;;;;;26.40;5.60;;;;;;;;;;1027966;28;20027;-74
2022/08/23 01:24:09;;;;;;;24.45;6.03;;;;;;;;;;1027854;28;20023;-74
2022/08/23 01:24:40;;;;;;;14.73;5.47;;;;;;;;;;1027918;28;20121;-74
2022/08/23 01:25:12;;;;;;;13.23;5.78;;;;;;;;;;1026553;28;20031;-74
2022/08/23 01:25:43;;;;;;;16.23;5.95;;;;;;;;;;1027676;28;20030;-74
2022/08/23 01:26:15;;;;;;;18.25;5.85;;;;;;;;;;1026734;28;20050;-74
2022/08/23 01:26:46;;;;;;;22.95;6.30;;;;;;;;;;1026953;28;20031;-74
2022/08/23 01:27:18;;;;;;;16.65;6.95;;;;;;;;;;1027305;28;20031;-74
2022/08/23 01:27:49;;;;;;;28.67;6.78;;;;;;;;;;1027824;28;20514;-74
2022/08/23 01:28:19;;;;;;;17.40;5.78;;;;;;;;;;1026983;28;20058;-74
2022/08/23 01:28:50;;;;;;;22.52;7.38;;;;;;;;;;1024821;28;20562;-74
2022/08/23 01:29:21;;;;;;;32.05;7.97;;;;;;;;;;1025759;28;20031;-74
2022/08/23 01:29:51;;;;;;;27.83;8.20;;;;;;;;;;1026640;28;20534;-74
2022/08/23 01:30:25;;;;;;;19.38;7.13;;;;;;;;;;1026390;28;20030;-74
2022/08/23 01:30:56;;;;;;;24.75;8.30;;;;;;;;;;1023194;28;20480;-74
2022/08/23 01:31:27;;;;;;;24.95;7.45;;;;;;;;;;1023750;28;20114;-74
2022/08/23 01:31:57;;;;;;;34.80;8.98;;;;;;;;;;1023859;28;20031;-74
2022/08/23 01:32:28;;;;;;;25.35;10.68;;;;;;;;;;1023730;28;20518;-74
2022/08/23 01:33:00;;;;;;;30.52;9.45;;;;;;;;;;1023782;28;20035;-74
2022/08/23 01:33:31;;;;;;;29.10;11.05;;;;;;;;;;1023044;28;20035;-74
2022/08/23 01:34:04;;;;;;;32.75;9.52;;;;;;;;;;1027560;28;20055;-74
2022/08/23 01:34:35;;;;;;;33.55;10.98;;;;;;;;;;1027182;28;20027;-74
2022/08/23 01:35:06;;;;;;;27.50;9.23;;;;;;;;;;1027254;28;20138;-74
2022/08/23 01:35:42;;;;;;;31.42;10.65;;;;;;;;;;1027964;28;20037;-74
2022/08/23 01:36:14;;;;;;;32.15;11.02;;;;;;;;;;1027602;28;20038;-74
2022/08/23 01:36:44;;;;;;;36.65;9.98;;;;;;;;;;1027085;28;20041;-74
2022/08/23 01:37:15;;;;;;;29.30;9.43;;;;;;;;;;1027518;28;20490;-74
2022/08/23 01:37:46;;;;;;;38.25;9.88;;;;;;;;;;1028031;28;20027;-74
2022/08/23 01:38:17;;;;;;;30.67;9.75;;;;;;;;;;1027091;28;20039;-74
2022/08/23 01:38:48;;;;;;;31.88;7.88;;;;;;;;;;1027648;28;20035;-74
2022/08/23 01:39:18;;;;;;;36.17;9.45;;;;;;;;;;1026931;28;20042;-74
2022/08/23 01:39:49;;;;;;;28.25;9.38;;;;;;;;;;1027697;28;20400;-74
2022/08/23 01:40:19;;;;;;;37.50;10.70;;;;;;;;;;1027630;28;20042;-74
2022/08/23 01:40:50;;;;;;;31.55;9.45;;;;;;;;;;1027664;28;20033;-74
2022/08/23 01:41:21;;;;;;;37.35;10.88;;;;;;;;;;1027418;28;20035;-74
2022/08/23 01:41:51;;;;;;;31.70;10.48;;;;;;;;;;1027923;28;20085;-74
2022/08/23 01:42:22;;;;;;;37.33;10.30;;;;;;;;;;1027541;28;20395;-74
2022/08/23 01:42:53;;;;;;;30.15;11.45;;;;;;;;;;1027756;28;20118;-74
2022/08/23 01:43:24;;;;;;;25.45;8.27;;;;;;;;;;1027517;28;20031;-74
2022/08/23 01:43:55;;;;;;;26.20;9.13;;;;;;;;;;1027985;28;20029;-74
2022/08/23 01:44:26;;;;;;;25.98;8.98;;;;;;;;;;1027573;28;20074;-74
2022/08/23 01:44:57;;;;;;;28.08;10.40;;;;;;;;;;1027428;28;20037;-74
2022/08/23 01:45:28;;;;;;;34.88;11.02;;;;;;;;;;1027575;28;20113;-74
2022/08/23 01:46:06;;;;;;;42.67;12.95;;;;;;;;;;1021303;28;20403;-74
2022/08/23 01:46:37;;;;;;;32.22;10.35;;;;;;;;;;1026607;28;20567;-74
2022/08/23 01:47:07;;;;;;;38.38;11.60;;;;;;;;;;1026474;28;20034;-74
2022/08/23 01:47:39;;;;;;;34.92;11.38;;;;;;;;;;1027770;28;20030;-74
2022/08/23 01:48:10;;;;;;;30.88;11.35;;;;;;;;;;1027628;28;20038;-74
2022/08/23 01:48:40;;;;;;;36.22;12.57;;;;;;;;;;1026423;28;20070;-74
2022/08/23 01:49:11;;;;;;;40.78;11.82;;;;;;;;;;1027516;28;20058;-74
2022/08/23 01:49:42;;;;;;;51.20;12.93;;;;;;;;;;1028005;28;20031;-74
2022/08/23 01:50:13;;;;;;;32.28;11.57;;;;;;;;;;1026889;28;20469;-74
2022/08/23 01:50:44;;;;;;;37.78;10.38;;;;;;;;;;1025443;28;20028;-74
2022/08/23 01:51:15;;;;;;;37.65;12.35;;;;;;;;;;1027452;28;20061;-74
2022/08/23 01:51:46;;;;;;;37.72;11.50;;;;;;;;;;1027768;28;20031;-74
2022/08/23 01:52:18;;;;;;;34.22;10.73;;;;;;;;;;1027506;28;20022;-74
2022/08/23 01:52:49;;;;;;;39.42;11.85;;;;;;;;;;1028036;28;20431;-74
2022/08/23 01:53:19;;;;;;;43.78;13.18;;;;;;;;;;1027452;28;20034;-74
2022/08/23 01:53:50;;;;;;;24.27;9.82;;;;;;;;;;1027596;28;20086;-74
2022/08/23 01:54:20;;;;;;;32.40;10.10;;;;;;;;;;1027174;28;20482;-74
2022/08/23 01:54:51;;;;;;;42.00;11.15;;;;;;;;;;1027717;28;20138;-74
2022/08/23 01:55:22;;;;;;;39.78;10.77;;;;;;;;;;1027234;28;20034;-74
2022/08/23 01:55:52;;;;;;;36.17;11.15;;;;;;;;;;1027352;28;20457;-74
2022/08/23 01:56:23;;;;;;;28.50;10.60;;;;;;;;;;1025826;28;20026;-74
2022/08/23 01:56:54;;;;;;;44.83;10.48;;;;;;;;;;1027388;28;20471;-74
2022/08/23 01:57:24;;;;;;;36.13;11.30;;;;;;;;;;1027077;28;20026;-74
2022/08/23 01:57:56;;;;;;;40.22;10.90;;;;;;;;;;1027336;28;20058;-74
2022/08/23 01:58:29;;;;;;;29.50;11.32;;;;;;;;;;1023445;28;20491;-74
2022/08/23 01:58:59;;;;;;;28.92;9.35;;;;;;;;;;1027414;28;20371;-74
2022/08/23 01:59:30;;;;;;;28.90;10.20;;;;;;;;;;1026819;28;20027;-74
2022/08/23 02:00:01;;;;;;;41.22;9.80;;;;;;;;;;1025766;28;20052;-74
2022/08/23 02:00:34;;;;;;;26.90;7.82;;;;;;;;;;1026562;28;20055;-74
2022/08/23 02:01:04;;;;;;;30.67;9.40;;;;;;;;;;1027006;28;20109;-74
2022/08/23 02:01:36;;;;;;;31.50;9.30;;;;;;;;;;1027051;28;20483;-74
2022/08/23 02:02:07;;;;;;;22.42;9.57;;;;;;;;;;1027529;28;20086;-74
2022/08/23 02:02:37;;;;;;;32.42;9.57;;;;;;;;;;1026859;28;20027;-74
2022/08/23 02:03:08;;;;;;;22.60;8.27;;;;;;;;;;1027533;28;20027;-74
2022/08/23 02:03:39;;;;;;;19.00;7.63;;;;;;;;;;1027515;28;20035;-74
2022/08/23 02:04:10;;;;;;;26.98;8.65;;;;;;;;;;1027172;28;20023;-74
2022/08/23 02:04:40;;;;;;;23.13;7.30;;;;;;;;;;1027658;28;20133;-74
2022/08/23 02:05:11;;;;;;;19.02;7.75;;;;;;;;;;1023601;28;20030;-74
2022/08/23 02:05:44;;;;;;;28.23;7.72;;;;;;;;;;1021698;28;20428;-74
2022/08/23 02:06:15;;;;;;;28.92;9.25;;;;;;;;;;1026913;28;20027;-74
2022/08/23 02:06:45;;;;;;;20.27;7.82;;;;;;;;;;1027421;28;20483;-74
2022/08/23 02:07:16;;;;;;;29.67;7.10;;;;;;;;;;1027208;28;20033;-74
2022/08/23 02:07:47;;;;;;;31.10;7.32;;;;;;;;;;1027441;28;20034;-74
2022/08/23 02:09:06;;;;;;;31.65;9.48;;;;;;;;;;1025683;28;20038;-74
2022/08/23 02:09:37;;;;;;;27.63;6.85;;;;;;;;;;1027545;28;20011;-74
2022/08/23 02:10:08;;;;;;;18.60;7.80;;;;;;;;;;1025159;28;20023;-74
2022/08/23 02:10:38;;;;;;;24.73;7.47;;;;;;;;;;1025717;28;20034;-74
2022/08/23 02:11:10;;;;;;;23.10;7.70;;;;;;;;;;1025521;28;20025;-74
2022/08/23 02:11:41;;;;;;;21.65;7.05;;;;;;;;;;1025452;28;20039;-73
2022/08/23 02:12:12;;;;;;;26.02;9.35;;;;;;;;;;1027796;28;20022;-73
2022/08/23 02:12:42;;;;;;;28.50;8.57;;;;;;;;;;1025931;28;20492;-73
2022/08/23 02:13:14;;;;;;;35.92;7.78;;;;;;;;;;1026067;28;20030;-73
2022/08/23 02:13:45;;;;;;;24.77;7.07;;;;;;;;;;1026022;28;20372;-73
2022/08/23 02:14:18;;;;;;;22.65;7.35;;;;;;;;;;1026321;28;20053;-73
2022/08/23 02:14:48;;;;;;;29.98;8.40;;;;;;;;;;1027530;28;20037;-73
2022/08/23 02:15:19;;;;;;;28.98;7.88;;;;;;;;;;1026835;28;20046;-73
2022/08/23 02:15:50;;;;;;;21.40;9.18;;;;;;;;;;1026397;28;20117;-73
2022/08/23 02:16:30;;;;;;;31.02;7.68;;;;;;;;;;1025591;28;20019;-73
2022/08/23 02:17:01;;;;;;;22.35;7.18;;;;;;;;;;1027098;28;20027;-73
2022/08/23 02:17:32;;;;;;;29.38;8.45;;;;;;;;;;1027179;28;20034;-75
2022/08/23 02:18:02;;;;;;;23.17;8.05;;;;;;;;;;1027037;28;20058;-73
2022/08/23 02:18:33;;;;;;;19.48;9.23;;;;;;;;;;1025407;28;20042;-73
2022/08/23 02:19:05;;;;;;;19.50;7.47;;;;;;;;;;1026915;28;20494;-73
2022/08/23 02:19:37;;;;;;;21.13;7.63;;;;;;;;;;1025970;28;20194;-73
2022/08/23 02:20:07;;;;;;;18.67;8.02;;;;;;;;;;1027785;28;20022;-73
2022/08/23 02:20:44;;;;;;;28.23;7.72;;;;;;;;;;1026065;28;20480;-73
2022/08/23 02:21:15;;;;;;;25.17;7.80;;;;;;;;;;1024158;28;20042;-73
2022/08/23 02:21:46;;;;;;;18.17;7.47;;;;;;;;;;1027252;28;20514;-73
2022/08/23 02:22:16;;;;;;;25.65;7.70;;;;;;;;;;1027277;28;20027;-73
2022/08/23 02:22:47;;;;;;;26.63;8.98;;;;;;;;;;1027371;28;20050;-73
2022/08/23 02:23:18;;;;;;;32.25;7.80;;;;;;;;;;1026861;28;20438;-73
2022/08/23 02:23:50;;;;;;;38.75;7.82;;;;;;;;;;1026347;28;20023;-73
2022/08/23 02:24:22;;;;;;;18.25;7.20;;;;;;;;;;1025700;28;20024;-73
2022/08/23 02:24:53;;;;;;;25.02;8.43;;;;;;;;;;1025974;28;20422;-73
2022/08/23 02:25:24;;;;;;;15.70;7.22;;;;;;;;;;1021296;29;20024;-73
2022/08/23 02:25:55;;;;;;;38.08;8.20;;;;;;;;;;1024312;28;20027;-73
2022/08/23 02:26:25;;;;;;;21.80;7.22;;;;;;;;;;1023460;29;20436;-73
2022/08/23 02:26:58;;;;;;;24.35;7.13;;;;;;;;;;1021849;28;20036;-73
2022/08/23 02:27:29;;;;;;;24.38;6.88;;;;;;;;;;1026535;28;20129;-73
2022/08/23 02:28:02;;;;;;;13.98;6.25;;;;;;;;;;1024895;28;20031;-73
2022/08/23 02:28:32;;;;;;;22.75;6.10;;;;;;;;;;1027648;28;20026;-73
2022/08/23 02:29:03;;;;;;;27.88;6.60;;;;;;;;;;1027902;28;20027;-73
2022/08/23 02:29:34;;;;;;;21.52;6.78;;;;;;;;;;1026759;28;20034;-73
2022/08/23 02:30:05;;;;;;;18.95;6.68;;;;;;;;;;1026579;28;20055;-73
2022/08/23 02:30:35;;;;;;;15.23;5.57;;;;;;;;;;1026640;28;20062;-73
2022/08/23 02:31:06;;;;;;;16.20;6.60;;;;;;;;;;1025474;28;20023;-73
2022/08/23 02:31:36;;;;;;;22.15;4.80;;;;;;;;;;1027912;28;20047;-73
2022/08/23 02:32:08;;;;;;;24.13;6.10;;;;;;;;;;1025695;28;20023;-73
2022/08/23 02:32:39;;;;;;;17.13;5.78;;;;;;;;;;1027895;28;20073;-73
2022/08/23 02:33:09;;;;;;;23.50;5.72;;;;;;;;;;1025922;28;20153;-73
2022/08/23 02:33:40;;;;;;;16.17;5.88;;;;;;;;;;1026288;28;20020;-73
2022/08/23 02:34:11;;;;;;;35.55;7.95;;;;;;;;;;1026227;28;20094;-73
2022/08/23 02:34:42;;;;;;;22.15;7.97;;;;;;;;;;1027862;28;20023;-73
2022/08/23 02:35:12;;;;;;;21.63;6.30;;;;;;;;;;1028338;28;20121;-73
2022/08/23 02:35:43;;;;;;;15.70;5.22;;;;;;;;;;1026279;28;20388;-73
2022/08/23 02:36:14;;;;;;;22.05;6.50;;;;;;;;;;1026310;28;20022;-73
2022/08/23 02:36:45;;;;;;;25.83;6.78;;;;;;;;;;1026237;28;20100;-73
2022/08/23 02:37:15;;;;;;;22.38;7.05;;;;;;;;;;1026171;28;20077;-73
2022/08/23 02:37:46;;;;;;;24.15;6.88;;;;;;;;;;1026363;28;20487;-73
2022/08/23 02:38:17;;;;;;;20.33;5.75;;;;;;;;;;1027387;28;20507;-73
2022/08/23 02:38:48;;;;;;;21.42;7.88;;;;;;;;;;1031328;28;20418;-73
2022/08/23 02:39:19;;;;;;;24.20;5.60;;;;;;;;;;1031850;28;20505;-73
2022/08/23 02:39:50;;;;;;;18.20;6.43;;;;;;;;;;1031883;28;20022;-73
2022/08/23 02:40:21;;;;;;;15.30;5.70;;;;;;;;;;1031714;28;20026;-73
2022/08/23 02:40:51;;;;;;;16.63;5.72;;;;;;;;;;1027070;28;20113;-73
2022/08/23 02:41:22;;;;;;;17.40;5.25;;;;;;;;;;1026967;28;20022;-73
2022/08/23 02:41:53;;;;;;;23.70;6.32;;;;;;;;;;1027948;28;20019;-73
2022/08/23 02:42:24;;;;;;;20.92;5.90;;;;;;;;;;1027684;28;20475;-73
2022/08/23 02:42:54;;;;;;;14.90;5.68;;;;;;;;;;1028189;28;20023;-73
2022/08/23 02:43:25;;;;;;;15.60;6.30;;;;;;;;;;1026237;28;20029;-73
2022/08/23 02:43:56;;;;;;;19.25;7.05;;;;;;;;;;1026056;28;20357;-73
2022/08/23 02:44:26;;;;;;;12.85;6.47;;;;;;;;;;1026332;28;20027;-73
2022/08/23 02:44:58;;;;;;;13.07;5.53;;;;;;;;;;1025840;28;20074;-73
2022/08/23 02:45:28;;;;;;;18.83;5.82;;;;;;;;;;1025578;28;20027;-73
2022/08/23 02:45:59;;;;;;;18.75;5.10;;;;;;;;;;1027038;28;20041;-73
2022/08/23 02:46:29;;;;;;;24.50;5.97;;;;;;;;;;1027960;28;20030;-73
2022/08/23 02:47:01;;;;;;;19.70;5.50;;;;;;;;;;1027747;28;20113;-73
2022/08/23 02:47:31;;;;;;;22.83;5.10;;;;;;;;;;1027842;28;20475;-73
2022/08/23 02:48:02;;;;;;;12.45;4.82;;;;;;;;;;1026108;28;20051;-73
2022/08/23 02:48:33;;;;;;;16.27;5.40;;;;;;;;;;1027321;28;20027;-73
2022/08/23 02:49:04;;;;;;;13.13;5.28;;;;;;;;;;1026569;28;20027;-73
2022/08/23 02:49:35;;;;;;;20.10;4.40;;;;;;;;;;1027096;28;20061;-73
2022/08/23 02:50:06;;;;;;;19.17;5.15;;;;;;;;;;1025815;28;20037;-73
2022/08/23 02:50:37;;;;;;;18.58;5.25;;;;;;;;;;1027563;28;20022;-73
2022/08/23 02:51:08;;;;;;;15.63;4.50;;;;;;;;;;1021406;28;20024;-73
2022/08/23 02:51:39;;;;;;;14.07;4.20;;;;;;;;;;1026737;28;20134;-73
2022/08/23 02:52:09;;;;;;;13.77;4.47;;;;;;;;;;1022730;28;20025;-73
2022/08/23 02:52:40;;;;;;;12.77;4.15;;;;;;;;;;1023525;28;20122;-73
2022/08/23 02:53:11;;;;;;;13.10;4.47;;;;;;;;;;1027520;28;20434;-73
2022/08/23 02:53:41;;;;;;;10.43;3.92;;;;;;;;;;1027470;28;20026;-73
2022/08/23 02:54:12;;;;;;;13.82;4.72;;;;;;;;;;1025838;28;20458;-73
2022/08/23 02:54:43;;;;;;;18.10;5.22;;;;;;;;;;1027815;28;20577;-73
2022/08/23 02:55:14;;;;;;;14.25;5.10;;;;;;;;;;1026102;28;20030;-73
2022/08/23 02:55:45;;;;;;;14.88;5.28;;;;;;;;;;1027709;28;20065;-73
2022/08/23 02:56:16;;;;;;;15.07;4.43;;;;;;;;;;1027466;28;20026;-73
2022/08/23 02:56:47;;;;;;;15.23;3.80;;;;;;;;;;1026768;28;20039;-73
2022/08/23 02:57:18;;;;;;;12.63;4.10;;;;;;;;;;1027906;28;20502;-73
2022/08/23 02:57:48;;;;;;;14.77;5.22;;;;;;;;;;1026271;28;20023;-73
2022/08/23 02:58:19;;;;;;;14.07;4.43;;;;;;;;;;1026596;28;20035;-73
2022/08/23 02:58:50;;;;;;;21.52;6.05;;;;;;;;;;1027886;28;20086;-73
2022/08/23 02:59:21;;;;;;;10.63;3.65;;;;;;;;;;1025617;28;20024;-73
2022/08/23 02:59:51;;;;;;;14.20;4.20;;;;;;;;;;1026590;28;20550;-73
2022/08/23 03:00:22;;;;;;;13.95;4.65;;;;;;;;;;1025944;28;20129;-73
2022/08/23 03:00:53;;;;;;;15.13;4.35;;;;;;;;;;1026277;28;20042;-73
2022/08/23 03:01:26;;;;;;;8.88;3.63;;;;;;;;;;1027329;28;20136;-73
2022/08/23 03:01:56;;;;;;;15.10;6.15;;;;;;;;;;1025743;28;20023;-73
2022/08/23 03:02:28;;;;;;;18.85;3.67;;;;;;;;;;1025676;28;20407;-73
2022/08/23 03:02:58;;;;;;;16.33;5.30;;;;;;;;;;1025837;28;20039;-73
2022/08/23 03:03:29;;;;;;;11.30;3.15;;;;;;;;;;1025782;28;20034;-73
2022/08/23 03:04:00;;;;;;;16.73;3.22;;;;;;;;;;1026909;28;20393;-73
2022/08/23 03:04:31;;;;;;;8.38;3.25;;;;;;;;;;1027558;28;20479;-73
2022/08/23 03:05:02;;;;;;;16.73;3.83;;;;;;;;;;1026983;28;20121;-73
2022/08/23 03:05:33;;;;;;;10.00;2.63;;;;;;;;;;1025092;28;20624;-73
2022/08/23 03:06:03;;;;;;;11.60;2.45;;;;;;;;;;1026456;28;20479;-73
2022/08/23 03:06:34;;;;;;;12.90;2.60;;;;;;;;;;1022292;29;20027;-73
2022/08/23 03:07:05;;;;;;;8.23;3.30;;;;;;;;;;1025686;28;20042;-73
2022/08/23 03:07:35;;;;;;;25.33;5.05;;;;;;;;;;1026549;28;20113;-73
2022/08/23 03:08:07;;;;;;;11.52;3.47;;;;;;;;;;1025688;28;20454;-73
2022/08/23 03:08:37;;;;;;;15.35;3.10;;;;;;;;;;1026473;28;20031;-73
2022/08/23 03:09:08;;;;;;;8.88;2.95;;;;;;;;;;1026914;28;20019;-73
2022/08/23 03:09:38;;;;;;;6.40;2.83;;;;;;;;;;1024856;28;20023;-73
2022/08/23 03:10:09;;;;;;;12.82;3.40;;;;;;;;;;1027405;28;20030;-73
2022/08/23 03:10:44;;;;;;;14.15;3.97;;;;;;;;;;1025765;28;20035;-73
2022/08/23 03:11:17;;;;;;;14.50;3.70;;;;;;;;;;1025408;28;20031;-73
2022/08/23 03:11:48;;;;;;;13.88;3.13;;;;;;;;;;1027843;28;20035;-73
2022/08/23 03:12:19;;;;;;;7.65;3.05;;;;;;;;;;1026365;28;20033;-73
2022/08/23 03:12:49;;;;;;;11.57;2.00;;;;;;;;;;1026517;28;20542;-73
2022/08/23 03:13:20;;;;;;;10.00;3.22;;;;;;;;;;1030118;28;20624;-73
2022/08/23 03:13:51;;;;;;;8.77;3.35;;;;;;;;;;1026990;28;20097;-73